sensor_id;sensor_type;location;lat;lon;timestamp;temperature;humidity
39825;DHT22;25503;52.532;13.640;2023-03-20T00:00:27;11.10;99.90
39825;DHT22;25503;52.532;13.640;2023-03-20T00:02:53;11.10;99.90
39825;DHT22;25503;52.532;13.640;2023-03-20T00:05:20;11.00;99.90
39825;DHT22;25503;52.532;13.640;2023-03-20T00:07:47;11.00;99.90
39825;DHT22;25503;52.532;13.640;2023-03-20T00:10:18;11.00;99.90
39825;DHT22;25503;52.532;13.640;2023-03-20T00:12:45;11.00;99.90
39825;DHT22;25503;52.532;13.640;2023-03-20T00:15:34;10.90;99.90
39825;DHT22;25503;52.532;13.640;2023-03-20T00:18:00;10.90;99.90
39825;DHT22;25503;52.532;13.640;2023-03-20T00:20:26;10.90;99.90
39825;DHT22;25503;52.532;13.640;2023-03-20T00:22:55;10.90;99.90
39825;DHT22;25503;52.532;13.640;2023-03-20T00:25:23;10.90;99.90
39825;DHT22;25503;52.532;13.640;2023-03-20T00:27:50;10.90;99.90
39825;DHT22;25503;52.532;13.640;2023-03-20T00:32:48;10.80;99.90
39825;DHT22;25503;52.532;13.640;2023-03-20T00:37:48;10.80;99.90
39825;DHT22;25503;52.532;13.640;2023-03-20T00:40:14;10.80;99.90
39825;DHT22;25503;52.532;13.640;2023-03-20T00:42:40;10.80;99.90
39825;DHT22;25503;52.532;13.640;2023-03-20T00:45:12;10.80;99.90
39825;DHT22;25503;52.532;13.640;2023-03-20T00:47:39;10.80;99.90
39825;DHT22;25503;52.532;13.640;2023-03-20T00:50:21;10.70;99.90
39825;DHT22;25503;52.532;13.640;2023-03-20T00:52:48;10.70;99.90
39825;DHT22;25503;52.532;13.640;2023-03-20T00:55:16;10.60;99.90
39825;DHT22;25503;52.532;13.640;2023-03-20T00:57:51;10.60;99.90
39825;DHT22;25503;52.532;13.640;2023-03-20T01:03:01;10.50;99.90
39825;DHT22;25503;52.532;13.640;2023-03-20T01:05:33;10.50;99.90
39825;DHT22;25503;52.532;13.640;2023-03-20T01:07:59;10.40;99.90
39825;DHT22;25503;52.532;13.640;2023-03-20T01:10:28;10.40;99.90
39825;DHT22;25503;52.532;13.640;2023-03-20T01:12:58;10.40;99.90
39825;DHT22;25503;52.532;13.640;2023-03-20T01:15:29;10.30;99.90
39825;DHT22;25503;52.532;13.640;2023-03-20T01:17:56;10.30;99.90
39825;DHT22;25503;52.532;13.640;2023-03-20T01:20:24;10.20;99.90
39825;DHT22;25503;52.532;13.640;2023-03-20T01:22:50;10.20;99.90
39825;DHT22;25503;52.532;13.640;2023-03-20T01:25:17;10.10;99.90
39825;DHT22;25503;52.532;13.640;2023-03-20T01:27:45;10.10;99.90
39825;DHT22;25503;52.532;13.640;2023-03-20T01:30:19;10.00;99.90
39825;DHT22;25503;52.532;13.640;2023-03-20T01:32:45;10.00;99.90
39825;DHT22;25503;52.532;13.640;2023-03-20T01:35:14;9.90;99.90
39825;DHT22;25503;52.532;13.640;2023-03-20T01:37:40;9.90;99.90
39825;DHT22;25503;52.532;13.640;2023-03-20T01:40:23;9.90;99.90
39825;DHT22;25503;52.532;13.640;2023-03-20T01:42:51;9.80;99.90
39825;DHT22;25503;52.532;13.640;2023-03-20T01:45:21;9.70;99.90
39825;DHT22;25503;52.532;13.640;2023-03-20T01:47:48;9.70;99.90
39825;DHT22;25503;52.532;13.640;2023-03-20T01:50:21;9.60;99.90
39825;DHT22;25503;52.532;13.640;2023-03-20T01:52:51;9.60;99.90
39825;DHT22;25503;52.532;13.640;2023-03-20T01:55:18;9.50;99.90
39825;DHT22;25503;52.532;13.640;2023-03-20T01:57:45;9.50;99.90
39825;DHT22;25503;52.532;13.640;2023-03-20T02:00:14;9.40;99.90
39825;DHT22;25503;52.532;13.640;2023-03-20T02:02:45;9.40;99.90
39825;DHT22;25503;52.532;13.640;2023-03-20T02:05:17;9.30;99.90
39825;DHT22;25503;52.532;13.640;2023-03-20T02:07:48;9.20;99.90
39825;DHT22;25503;52.532;13.640;2023-03-20T02:10:18;9.20;99.90
39825;DHT22;25503;52.532;13.640;2023-03-20T02:12:46;9.20;99.90
39825;DHT22;25503;52.532;13.640;2023-03-20T02:15:13;9.10;99.90
39825;DHT22;25503;52.532;13.640;2023-03-20T02:17:41;9.10;99.90
39825;DHT22;25503;52.532;13.640;2023-03-20T02:27:04;9.00;99.90
39825;DHT22;25503;52.532;13.640;2023-03-20T02:42:42;9.00;99.90
39825;DHT22;25503;52.532;13.640;2023-03-20T02:45:16;8.90;99.90
39825;DHT22;25503;52.532;13.640;2023-03-20T02:50:38;8.90;99.90
39825;DHT22;25503;52.532;13.640;2023-03-20T02:53:31;8.90;99.90
39825;DHT22;25503;52.532;13.640;2023-03-20T02:58:48;8.90;99.90
39825;DHT22;25503;52.532;13.640;2023-03-20T03:01:21;8.90;99.90
39825;DHT22;25503;52.532;13.640;2023-03-20T03:04:08;8.90;99.90
39825;DHT22;25503;52.532;13.640;2023-03-20T03:06:37;8.90;99.90
39825;DHT22;25503;52.532;13.640;2023-03-20T03:09:06;8.90;99.90
39825;DHT22;25503;52.532;13.640;2023-03-20T03:11:38;8.90;99.90
39825;DHT22;25503;52.532;13.640;2023-03-20T03:14:06;8.90;99.90
39825;DHT22;25503;52.532;13.640;2023-03-20T03:16:36;8.90;99.90
39825;DHT22;25503;52.532;13.640;2023-03-20T03:19:07;8.90;99.90
39825;DHT22;25503;52.532;13.640;2023-03-20T03:21:35;8.90;99.90
39825;DHT22;25503;52.532;13.640;2023-03-20T03:24:02;8.90;99.90
39825;DHT22;25503;52.532;13.640;2023-03-20T03:26:33;8.90;99.90
39825;DHT22;25503;52.532;13.640;2023-03-20T03:29:14;8.90;99.90
39825;DHT22;25503;52.532;13.640;2023-03-20T03:31:42;9.00;99.90
39825;DHT22;25503;52.532;13.640;2023-03-20T03:34:14;9.00;99.90
39825;DHT22;25503;52.532;13.640;2023-03-20T03:39:33;9.00;99.90
39825;DHT22;25503;52.532;13.640;2023-03-20T03:42:52;9.00;99.90
39825;DHT22;25503;52.532;13.640;2023-03-20T03:45:00;9.00;99.90
39825;DHT22;25503;52.532;13.640;2023-03-20T03:47:53;9.00;99.90
39825;DHT22;25503;52.532;13.640;2023-03-20T03:50:27;9.00;99.90
39825;DHT22;25503;52.532;13.640;2023-03-20T03:52:57;9.10;99.90
39825;DHT22;25503;52.532;13.640;2023-03-20T03:55:33;9.10;99.90
39825;DHT22;25503;52.532;13.640;2023-03-20T03:58:06;9.10;99.90
39825;DHT22;25503;52.532;13.640;2023-03-20T04:00:34;9.10;99.90
39825;DHT22;25503;52.532;13.640;2023-03-20T04:03:02;9.10;99.90
39825;DHT22;25503;52.532;13.640;2023-03-20T04:05:31;9.10;99.90
39825;DHT22;25503;52.532;13.640;2023-03-20T04:07:59;9.10;99.90
39825;DHT22;25503;52.532;13.640;2023-03-20T04:10:28;9.10;99.90
39825;DHT22;25503;52.532;13.640;2023-03-20T04:12:54;9.10;99.90
39825;DHT22;25503;52.532;13.640;2023-03-20T04:15:20;9.10;99.90
39825;DHT22;25503;52.532;13.640;2023-03-20T04:17:46;9.10;99.90
39825;DHT22;25503;52.532;13.640;2023-03-20T04:20:12;9.10;99.90
39825;DHT22;25503;52.532;13.640;2023-03-20T04:22:39;9.10;99.90
39825;DHT22;25503;52.532;13.640;2023-03-20T04:25:06;9.10;99.90
39825;DHT22;25503;52.532;13.640;2023-03-20T04:27:32;9.10;99.90
39825;DHT22;25503;52.532;13.640;2023-03-20T04:29:58;9.10;99.90
39825;DHT22;25503;52.532;13.640;2023-03-20T04:32:23;9.10;99.90
39825;DHT22;25503;52.532;13.640;2023-03-20T04:34:49;9.10;99.90
39825;DHT22;25503;52.532;13.640;2023-03-20T04:37:16;9.10;99.90
39825;DHT22;25503;52.532;13.640;2023-03-20T04:39:42;9.10;99.90
39825;DHT22;25503;52.532;13.640;2023-03-20T04:42:08;9.10;99.90
39825;DHT22;25503;52.532;13.640;2023-03-20T04:44:34;9.10;99.90
39825;DHT22;25503;52.532;13.640;2023-03-20T04:47:00;9.10;99.90
39825;DHT22;25503;52.532;13.640;2023-03-20T04:49:26;9.10;99.90
39825;DHT22;25503;52.532;13.640;2023-03-20T04:51:53;9.10;99.90
39825;DHT22;25503;52.532;13.640;2023-03-20T04:54:19;9.10;99.90
39825;DHT22;25503;52.532;13.640;2023-03-20T04:56:45;9.10;99.90
39825;DHT22;25503;52.532;13.640;2023-03-20T04:59:10;9.10;99.90
39825;DHT22;25503;52.532;13.640;2023-03-20T05:01:36;9.10;99.90
39825;DHT22;25503;52.532;13.640;2023-03-20T05:04:05;9.10;99.90
39825;DHT22;25503;52.532;13.640;2023-03-20T05:06:31;9.10;99.90
39825;DHT22;25503;52.532;13.640;2023-03-20T05:08:57;9.10;99.90
39825;DHT22;25503;52.532;13.640;2023-03-20T05:11:24;9.10;99.90
39825;DHT22;25503;52.532;13.640;2023-03-20T05:13:50;9.10;99.90
39825;DHT22;25503;52.532;13.640;2023-03-20T05:16:16;9.10;99.90
39825;DHT22;25503;52.532;13.640;2023-03-20T05:18:42;9.10;99.90
39825;DHT22;25503;52.532;13.640;2023-03-20T05:21:07;9.10;99.90
39825;DHT22;25503;52.532;13.640;2023-03-20T05:23:34;9.10;99.90
39825;DHT22;25503;52.532;13.640;2023-03-20T05:26:00;9.10;99.90
39825;DHT22;25503;52.532;13.640;2023-03-20T05:28:27;9.20;99.90
39825;DHT22;25503;52.532;13.640;2023-03-20T05:30:52;9.20;99.90
39825;DHT22;25503;52.532;13.640;2023-03-20T05:33:18;9.20;99.90
39825;DHT22;25503;52.532;13.640;2023-03-20T05:35:44;9.20;99.90
39825;DHT22;25503;52.532;13.640;2023-03-20T05:38:10;9.20;99.90
39825;DHT22;25503;52.532;13.640;2023-03-20T05:40:36;9.20;99.90
39825;DHT22;25503;52.532;13.640;2023-03-20T05:43:01;9.20;99.90
39825;DHT22;25503;52.532;13.640;2023-03-20T05:45:27;9.20;99.90
39825;DHT22;25503;52.532;13.640;2023-03-20T05:47:53;9.20;99.90
39825;DHT22;25503;52.532;13.640;2023-03-20T05:50:18;9.20;99.90
39825;DHT22;25503;52.532;13.640;2023-03-20T05:52:48;9.20;99.90
39825;DHT22;25503;52.532;13.640;2023-03-20T05:55:14;9.20;99.90
39825;DHT22;25503;52.532;13.640;2023-03-20T05:57:40;9.20;99.90
39825;DHT22;25503;52.532;13.640;2023-03-20T06:00:06;9.20;99.90
39825;DHT22;25503;52.532;13.640;2023-03-20T06:02:33;9.30;99.90
39825;DHT22;25503;52.532;13.640;2023-03-20T06:04:59;9.30;99.90
39825;DHT22;25503;52.532;13.640;2023-03-20T06:07:28;9.30;99.90
39825;DHT22;25503;52.532;13.640;2023-03-20T06:09:54;9.30;99.90
39825;DHT22;25503;52.532;13.640;2023-03-20T06:12:19;9.30;99.90
39825;DHT22;25503;52.532;13.640;2023-03-20T06:14:46;9.30;99.90
39825;DHT22;25503;52.532;13.640;2023-03-20T06:17:11;9.30;99.90
39825;DHT22;25503;52.532;13.640;2023-03-20T06:19:37;9.30;99.90
39825;DHT22;25503;52.532;13.640;2023-03-20T06:22:03;9.40;99.90
39825;DHT22;25503;52.532;13.640;2023-03-20T06:24:29;9.40;99.90
39825;DHT22;25503;52.532;13.640;2023-03-20T06:26:55;9.40;99.90
39825;DHT22;25503;52.532;13.640;2023-03-20T06:29:21;9.50;99.90
39825;DHT22;25503;52.532;13.640;2023-03-20T06:31:46;9.60;99.90
39825;DHT22;25503;52.532;13.640;2023-03-20T06:34:13;9.60;99.90
39825;DHT22;25503;52.532;13.640;2023-03-20T06:36:38;9.70;99.90
39825;DHT22;25503;52.532;13.640;2023-03-20T06:39:04;9.80;99.90
39825;DHT22;25503;52.532;13.640;2023-03-20T06:41:30;9.90;99.90
39825;DHT22;25503;52.532;13.640;2023-03-20T06:43:55;10.00;99.90
39825;DHT22;25503;52.532;13.640;2023-03-20T06:46:24;10.10;99.90
39825;DHT22;25503;52.532;13.640;2023-03-20T06:48:50;10.10;99.90
39825;DHT22;25503;52.532;13.640;2023-03-20T06:51:16;10.10;99.90
39825;DHT22;25503;52.532;13.640;2023-03-20T06:53:42;10.20;99.90
39825;DHT22;25503;52.532;13.640;2023-03-20T06:56:10;10.20;99.90
39825;DHT22;25503;52.532;13.640;2023-03-20T06:58:36;10.20;99.90
39825;DHT22;25503;52.532;13.640;2023-03-20T07:01:03;10.10;99.90
39825;DHT22;25503;52.532;13.640;2023-03-20T07:03:33;10.10;99.90
39825;DHT22;25503;52.532;13.640;2023-03-20T07:06:00;10.10;99.90
39825;DHT22;25503;52.532;13.640;2023-03-20T07:08:26;10.00;99.90
39825;DHT22;25503;52.532;13.640;2023-03-20T07:10:51;10.00;99.90
39825;DHT22;25503;52.532;13.640;2023-03-20T07:13:17;10.00;99.90
39825;DHT22;25503;52.532;13.640;2023-03-20T07:15:46;9.90;99.90
39825;DHT22;25503;52.532;13.640;2023-03-20T07:18:12;9.90;99.90
39825;DHT22;25503;52.532;13.640;2023-03-20T07:20:37;9.90;99.90
39825;DHT22;25503;52.532;13.640;2023-03-20T07:23:03;9.90;99.90
39825;DHT22;25503;52.532;13.640;2023-03-20T07:25:29;9.90;99.90
39825;DHT22;25503;52.532;13.640;2023-03-20T07:27:55;9.80;99.90
39825;DHT22;25503;52.532;13.640;2023-03-20T07:30:20;9.80;99.90
39825;DHT22;25503;52.532;13.640;2023-03-20T07:32:46;9.80;99.90
39825;DHT22;25503;52.532;13.640;2023-03-20T07:35:13;9.80;99.90
39825;DHT22;25503;52.532;13.640;2023-03-20T07:37:39;9.70;99.90
39825;DHT22;25503;52.532;13.640;2023-03-20T07:40:05;9.70;99.90
39825;DHT22;25503;52.532;13.640;2023-03-20T07:42:31;9.70;99.90
39825;DHT22;25503;52.532;13.640;2023-03-20T07:44:57;9.60;99.90
39825;DHT22;25503;52.532;13.640;2023-03-20T07:47:23;9.60;99.90
39825;DHT22;25503;52.532;13.640;2023-03-20T07:49:48;9.60;99.90
39825;DHT22;25503;52.532;13.640;2023-03-20T07:52:14;9.60;99.90
39825;DHT22;25503;52.532;13.640;2023-03-20T07:54:39;9.50;99.90
39825;DHT22;25503;52.532;13.640;2023-03-20T07:57:05;9.50;99.90
39825;DHT22;25503;52.532;13.640;2023-03-20T07:59:31;9.50;99.90
39825;DHT22;25503;52.532;13.640;2023-03-20T08:01:57;9.50;99.90
39825;DHT22;25503;52.532;13.640;2023-03-20T08:04:23;9.50;99.90
39825;DHT22;25503;52.532;13.640;2023-03-20T08:06:49;9.40;99.90
39825;DHT22;25503;52.532;13.640;2023-03-20T08:09:16;9.40;99.90
39825;DHT22;25503;52.532;13.640;2023-03-20T08:11:42;9.40;99.90
39825;DHT22;25503;52.532;13.640;2023-03-20T08:14:08;9.40;99.90
39825;DHT22;25503;52.532;13.640;2023-03-20T08:16:33;9.40;99.90
39825;DHT22;25503;52.532;13.640;2023-03-20T08:18:59;9.40;99.90
39825;DHT22;25503;52.532;13.640;2023-03-20T08:21:30;9.40;99.90
39825;DHT22;25503;52.532;13.640;2023-03-20T08:23:56;9.40;99.90
39825;DHT22;25503;52.532;13.640;2023-03-20T08:26:23;9.40;99.90
39825;DHT22;25503;52.532;13.640;2023-03-20T08:28:50;9.40;99.90
39825;DHT22;25503;52.532;13.640;2023-03-20T08:31:16;9.40;99.90
39825;DHT22;25503;52.532;13.640;2023-03-20T08:33:43;9.40;99.90
39825;DHT22;25503;52.532;13.640;2023-03-20T08:36:09;9.40;99.90
39825;DHT22;25503;52.532;13.640;2023-03-20T08:38:35;9.50;99.90
39825;DHT22;25503;52.532;13.640;2023-03-20T08:41:02;9.50;99.90
39825;DHT22;25503;52.532;13.640;2023-03-20T08:43:28;9.60;99.90
39825;DHT22;25503;52.532;13.640;2023-03-20T08:45:53;9.60;99.90
39825;DHT22;25503;52.532;13.640;2023-03-20T08:48:19;9.60;99.90
39825;DHT22;25503;52.532;13.640;2023-03-20T08:50:45;9.70;99.90
39825;DHT22;25503;52.532;13.640;2023-03-20T08:53:11;9.70;99.90
39825;DHT22;25503;52.532;13.640;2023-03-20T08:55:37;9.70;99.90
39825;DHT22;25503;52.532;13.640;2023-03-20T08:58:02;9.70;99.90
39825;DHT22;25503;52.532;13.640;2023-03-20T09:00:28;9.70;99.90
39825;DHT22;25503;52.532;13.640;2023-03-20T09:02:54;9.80;99.90
39825;DHT22;25503;52.532;13.640;2023-03-20T09:05:20;9.80;99.90
39825;DHT22;25503;52.532;13.640;2023-03-20T09:07:49;9.90;99.90
39825;DHT22;25503;52.532;13.640;2023-03-20T09:10:16;9.90;99.90
39825;DHT22;25503;52.532;13.640;2023-03-20T09:12:41;10.10;99.90
39825;DHT22;25503;52.532;13.640;2023-03-20T09:15:07;10.20;99.90
39825;DHT22;25503;52.532;13.640;2023-03-20T09:17:33;10.40;99.90
39825;DHT22;25503;52.532;13.640;2023-03-20T09:19:59;10.50;99.90
39825;DHT22;25503;52.532;13.640;2023-03-20T09:22:25;10.60;99.90
39825;DHT22;25503;52.532;13.640;2023-03-20T09:24:50;10.80;99.90
39825;DHT22;25503;52.532;13.640;2023-03-20T09:27:16;10.90;99.90
39825;DHT22;25503;52.532;13.640;2023-03-20T09:29:42;11.00;99.90
39825;DHT22;25503;52.532;13.640;2023-03-20T09:32:13;11.10;99.90
39825;DHT22;25503;52.532;13.640;2023-03-20T09:34:39;11.20;99.90
39825;DHT22;25503;52.532;13.640;2023-03-20T09:37:06;11.30;99.90
39825;DHT22;25503;52.532;13.640;2023-03-20T09:39:32;11.40;99.90
39825;DHT22;25503;52.532;13.640;2023-03-20T09:42:12;11.50;99.90
39825;DHT22;25503;52.532;13.640;2023-03-20T09:45:22;11.60;99.90
39825;DHT22;25503;52.532;13.640;2023-03-20T09:50:38;11.60;99.90
39825;DHT22;25503;52.532;13.640;2023-03-20T09:53:41;11.70;99.90
39825;DHT22;25503;52.532;13.640;2023-03-20T09:56:16;11.60;99.90
39825;DHT22;25503;52.532;13.640;2023-03-20T09:58:51;11.70;99.90
39825;DHT22;25503;52.532;13.640;2023-03-20T10:01:19;11.80;99.90
39825;DHT22;25503;52.532;13.640;2023-03-20T10:03:56;11.80;99.90
39825;DHT22;25503;52.532;13.640;2023-03-20T10:06:22;11.90;99.90
39825;DHT22;25503;52.532;13.640;2023-03-20T10:08:48;11.90;99.90
39825;DHT22;25503;52.532;13.640;2023-03-20T10:17:06;12.10;99.90
39825;DHT22;25503;52.532;13.640;2023-03-20T10:19:57;12.00;99.90
39825;DHT22;25503;52.532;13.640;2023-03-20T10:22:33;12.00;99.90
39825;DHT22;25503;52.532;13.640;2023-03-20T10:25:15;12.00;99.90
39825;DHT22;25503;52.532;13.640;2023-03-20T10:27:55;12.10;99.90
39825;DHT22;25503;52.532;13.640;2023-03-20T10:38:59;11.90;99.90
39825;DHT22;25503;52.532;13.640;2023-03-20T10:41:31;11.80;99.90
39825;DHT22;25503;52.532;13.640;2023-03-20T10:43:58;11.80;99.90
39825;DHT22;25503;52.532;13.640;2023-03-20T10:46:29;11.80;99.90
39825;DHT22;25503;52.532;13.640;2023-03-20T10:49:08;11.80;99.90
39825;DHT22;25503;52.532;13.640;2023-03-20T10:51:48;11.80;99.90
39825;DHT22;25503;52.532;13.640;2023-03-20T10:54:38;11.80;99.90
39825;DHT22;25503;52.532;13.640;2023-03-20T10:57:11;11.80;99.90
39825;DHT22;25503;52.532;13.640;2023-03-20T10:59:40;11.80;99.90
39825;DHT22;25503;52.532;13.640;2023-03-20T11:02:18;11.80;99.90
39825;DHT22;25503;52.532;13.640;2023-03-20T11:04:44;11.80;99.90
39825;DHT22;25503;52.532;13.640;2023-03-20T11:09:45;11.70;99.90
39825;DHT22;25503;52.532;13.640;2023-03-20T11:12:16;11.70;99.90
39825;DHT22;25503;52.532;13.640;2023-03-20T11:14:44;11.70;99.90
39825;DHT22;25503;52.532;13.640;2023-03-20T11:17:10;11.70;99.90
39825;DHT22;25503;52.532;13.640;2023-03-20T11:19:38;11.70;99.90
39825;DHT22;25503;52.532;13.640;2023-03-20T11:22:25;11.80;99.90
39825;DHT22;25503;52.532;13.640;2023-03-20T11:25:02;11.80;99.90
39825;DHT22;25503;52.532;13.640;2023-03-20T11:27:29;11.80;99.90
39825;DHT22;25503;52.532;13.640;2023-03-20T11:29:59;11.80;99.90
39825;DHT22;25503;52.532;13.640;2023-03-20T11:32:34;11.80;99.90
39825;DHT22;25503;52.532;13.640;2023-03-20T11:35:19;11.90;99.90
39825;DHT22;25503;52.532;13.640;2023-03-20T11:37:51;11.90;99.90
39825;DHT22;25503;52.532;13.640;2023-03-20T11:40:24;11.90;99.90
39825;DHT22;25503;52.532;13.640;2023-03-20T11:46:00;11.90;99.90
39825;DHT22;25503;52.532;13.640;2023-03-20T11:48:24;12.00;99.90
39825;DHT22;25503;52.532;13.640;2023-03-20T11:50:55;12.00;99.90
39825;DHT22;25503;52.532;13.640;2023-03-20T11:56:23;12.00;99.90
39825;DHT22;25503;52.532;13.640;2023-03-20T12:01:15;12.00;99.90
39825;DHT22;25503;52.532;13.640;2023-03-20T12:04:29;12.00;99.90
39825;DHT22;25503;52.532;13.640;2023-03-20T12:07:02;12.00;99.90
39825;DHT22;25503;52.532;13.640;2023-03-20T12:15:12;12.10;99.90
39825;DHT22;25503;52.532;13.640;2023-03-20T12:17:54;12.10;99.90
39825;DHT22;25503;52.532;13.640;2023-03-20T12:20:38;12.10;99.90
39825;DHT22;25503;52.532;13.640;2023-03-20T12:25:56;12.20;99.90
39825;DHT22;25503;52.532;13.640;2023-03-20T12:28:29;12.20;99.90
39825;DHT22;25503;52.532;13.640;2023-03-20T12:35:56;12.20;99.90
39825;DHT22;25503;52.532;13.640;2023-03-20T12:38:29;12.20;99.90
39825;DHT22;25503;52.532;13.640;2023-03-20T12:43:36;12.20;99.90
39825;DHT22;25503;52.532;13.640;2023-03-20T12:51:10;12.20;99.90
39825;DHT22;25503;52.532;13.640;2023-03-20T12:57:05;12.20;99.90
39825;DHT22;25503;52.532;13.640;2023-03-20T12:59:23;12.20;99.90
39825;DHT22;25503;52.532;13.640;2023-03-20T13:04:48;12.10;99.90
39825;DHT22;25503;52.532;13.640;2023-03-20T13:10:02;12.10;99.90
39825;DHT22;25503;52.532;13.640;2023-03-20T13:20:33;12.00;99.90
39825;DHT22;25503;52.532;13.640;2023-03-20T13:39:13;12.10;99.90
39825;DHT22;25503;52.532;13.640;2023-03-20T13:41:40;12.10;99.90
39825;DHT22;25503;52.532;13.640;2023-03-20T13:44:09;12.20;99.90
39825;DHT22;25503;52.532;13.640;2023-03-20T13:52:29;12.10;99.90
39825;DHT22;25503;52.532;13.640;2023-03-20T13:55:20;12.10;99.90
39825;DHT22;25503;52.532;13.640;2023-03-20T13:58:18;12.10;99.90
39825;DHT22;25503;52.532;13.640;2023-03-20T14:03:21;12.10;99.90
39825;DHT22;25503;52.532;13.640;2023-03-20T14:05:48;12.00;99.90
39825;DHT22;25503;52.532;13.640;2023-03-20T14:13:50;12.00;99.90
39825;DHT22;25503;52.532;13.640;2023-03-20T14:16:18;12.00;99.90
39825;DHT22;25503;52.532;13.640;2023-03-20T14:18:49;12.00;99.90
39825;DHT22;25503;52.532;13.640;2023-03-20T14:21:28;12.00;99.90
39825;DHT22;25503;52.532;13.640;2023-03-20T14:24:05;12.00;99.90
39825;DHT22;25503;52.532;13.640;2023-03-20T14:26:36;12.00;99.90
39825;DHT22;25503;52.532;13.640;2023-03-20T14:31:34;12.00;99.90
39825;DHT22;25503;52.532;13.640;2023-03-20T14:34:13;11.90;99.90
39825;DHT22;25503;52.532;13.640;2023-03-20T14:36:46;11.90;99.90
39825;DHT22;25503;52.532;13.640;2023-03-20T14:47:21;11.80;99.90
39825;DHT22;25503;52.532;13.640;2023-03-20T14:58:05;11.70;99.90
39825;DHT22;25503;52.532;13.640;2023-03-20T15:00:45;11.70;99.90
39825;DHT22;25503;52.532;13.640;2023-03-20T15:03:15;11.70;99.90
39825;DHT22;25503;52.532;13.640;2023-03-20T15:05:43;11.70;99.90
39825;DHT22;25503;52.532;13.640;2023-03-20T15:08:17;11.60;99.90
39825;DHT22;25503;52.532;13.640;2023-03-20T15:10:50;11.60;99.90
39825;DHT22;25503;52.532;13.640;2023-03-20T15:13:16;11.60;99.90
39825;DHT22;25503;52.532;13.640;2023-03-20T15:18:18;11.50;99.90
39825;DHT22;25503;52.532;13.640;2023-03-20T15:20:44;11.50;99.90
39825;DHT22;25503;52.532;13.640;2023-03-20T15:23:10;11.50;99.90
39825;DHT22;25503;52.532;13.640;2023-03-20T15:25:41;11.50;99.90
39825;DHT22;25503;52.532;13.640;2023-03-20T15:28:19;11.50;99.90
39825;DHT22;25503;52.532;13.640;2023-03-20T15:30:48;11.40;99.90
39825;DHT22;25503;52.532;13.640;2023-03-20T15:33:36;11.40;99.90
39825;DHT22;25503;52.532;13.640;2023-03-20T15:36:14;11.40;99.90
39825;DHT22;25503;52.532;13.640;2023-03-20T15:38:40;11.40;99.90
39825;DHT22;25503;52.532;13.640;2023-03-20T15:41:33;11.40;99.90
39825;DHT22;25503;52.532;13.640;2023-03-20T15:47:02;11.30;99.90
39825;DHT22;25503;52.532;13.640;2023-03-20T15:49:31;11.30;99.90
39825;DHT22;25503;52.532;13.640;2023-03-20T15:51:59;11.30;99.90
39825;DHT22;25503;52.532;13.640;2023-03-20T15:54:26;11.30;99.90
39825;DHT22;25503;52.532;13.640;2023-03-20T15:56:55;11.30;99.90
39825;DHT22;25503;52.532;13.640;2023-03-20T15:59:24;11.30;99.90
39825;DHT22;25503;52.532;13.640;2023-03-20T16:01:54;11.30;99.90
39825;DHT22;25503;52.532;13.640;2023-03-20T16:04:23;11.30;99.90
39825;DHT22;25503;52.532;13.640;2023-03-20T16:06:53;11.30;99.90
39825;DHT22;25503;52.532;13.640;2023-03-20T16:09:20;11.30;99.90
39825;DHT22;25503;52.532;13.640;2023-03-20T16:11:48;11.30;99.90
39825;DHT22;25503;52.532;13.640;2023-03-20T16:14:33;11.30;99.90
39825;DHT22;25503;52.532;13.640;2023-03-20T16:17:00;11.30;99.90
39825;DHT22;25503;52.532;13.640;2023-03-20T16:19:30;11.30;99.90
39825;DHT22;25503;52.532;13.640;2023-03-20T16:22:29;11.30;99.90
39825;DHT22;25503;52.532;13.640;2023-03-20T16:24:59;11.30;99.90
39825;DHT22;25503;52.532;13.640;2023-03-20T16:27:34;11.30;99.90
39825;DHT22;25503;52.532;13.640;2023-03-20T16:30:11;11.30;99.90
39825;DHT22;25503;52.532;13.640;2023-03-20T16:32:43;11.30;99.90
39825;DHT22;25503;52.532;13.640;2023-03-20T16:35:25;11.20;99.90
39825;DHT22;25503;52.532;13.640;2023-03-20T16:37:59;11.20;99.90
39825;DHT22;25503;52.532;13.640;2023-03-20T16:42:52;11.20;99.90
39825;DHT22;25503;52.532;13.640;2023-03-20T16:45:23;11.20;99.90
39825;DHT22;25503;52.532;13.640;2023-03-20T16:47:49;11.20;99.90
39825;DHT22;25503;52.532;13.640;2023-03-20T16:50:18;11.20;99.90
39825;DHT22;25503;52.532;13.640;2023-03-20T16:52:55;11.20;99.90
39825;DHT22;25503;52.532;13.640;2023-03-20T16:55:34;11.10;99.90
39825;DHT22;25503;52.532;13.640;2023-03-20T16:58:04;11.10;99.90
39825;DHT22;25503;52.532;13.640;2023-03-20T17:00:40;11.10;99.90
39825;DHT22;25503;52.532;13.640;2023-03-20T17:06:27;11.10;99.90
39825;DHT22;25503;52.532;13.640;2023-03-20T17:09:14;11.00;99.90
39825;DHT22;25503;52.532;13.640;2023-03-20T17:12:17;11.00;99.90
39825;DHT22;25503;52.532;13.640;2023-03-20T17:14:43;11.00;99.90
39825;DHT22;25503;52.532;13.640;2023-03-20T17:17:14;11.00;99.90
39825;DHT22;25503;52.532;13.640;2023-03-20T17:19:40;11.00;99.90
39825;DHT22;25503;52.532;13.640;2023-03-20T17:22:17;11.00;99.90
39825;DHT22;25503;52.532;13.640;2023-03-20T17:24:43;11.00;99.90
39825;DHT22;25503;52.532;13.640;2023-03-20T17:27:13;10.90;99.90
39825;DHT22;25503;52.532;13.640;2023-03-20T17:29:43;10.90;99.90
39825;DHT22;25503;52.532;13.640;2023-03-20T17:32:22;10.90;99.90
39825;DHT22;25503;52.532;13.640;2023-03-20T17:34:49;10.90;99.90
39825;DHT22;25503;52.532;13.640;2023-03-20T17:37:21;10.90;99.90
39825;DHT22;25503;52.532;13.640;2023-03-20T17:39:47;10.90;99.90
39825;DHT22;25503;52.532;13.640;2023-03-20T17:42:23;10.80;99.90
39825;DHT22;25503;52.532;13.640;2023-03-20T17:44:51;10.80;99.90
39825;DHT22;25503;52.532;13.640;2023-03-20T17:47:18;10.80;99.90
39825;DHT22;25503;52.532;13.640;2023-03-20T17:49:49;10.80;99.90
39825;DHT22;25503;52.532;13.640;2023-03-20T17:52:21;10.70;99.90
39825;DHT22;25503;52.532;13.640;2023-03-20T17:54:48;10.70;99.90
39825;DHT22;25503;52.532;13.640;2023-03-20T17:57:33;10.70;99.90
39825;DHT22;25503;52.532;13.640;2023-03-20T18:00:05;10.70;99.90
39825;DHT22;25503;52.532;13.640;2023-03-20T18:02:31;10.70;99.90
39825;DHT22;25503;52.532;13.640;2023-03-20T18:04:57;10.70;99.90
39825;DHT22;25503;52.532;13.640;2023-03-20T18:07:26;10.70;99.90
39825;DHT22;25503;52.532;13.640;2023-03-20T18:09:51;10.70;99.90
39825;DHT22;25503;52.532;13.640;2023-03-20T18:12:18;10.70;99.90
39825;DHT22;25503;52.532;13.640;2023-03-20T18:14:45;10.60;99.90
39825;DHT22;25503;52.532;13.640;2023-03-20T18:17:13;10.70;99.90
39825;DHT22;25503;52.532;13.640;2023-03-20T18:19:39;10.60;99.90
39825;DHT22;25503;52.532;13.640;2023-03-20T18:22:05;10.60;99.90